createdAt,value
2023-04-30T00:01:05.543Z,99581.19
2023-04-30T00:05:09.457Z,99600.69
2023-04-30T00:09:12.647Z,99590.19
2023-04-30T00:13:17.129Z,99585.53
2023-04-30T00:17:19.936Z,99585.53
2023-04-30T00:21:22.641Z,99585.09
2023-04-30T00:25:25.746Z,99592.41
2023-04-30T00:29:29.720Z,99594.19
2023-04-30T00:33:32.385Z,99589.69
2023-04-30T00:37:35.321Z,99581.53
2023-04-30T00:41:38.614Z,99588.31
2023-04-30T00:45:42.624Z,99574.63
2023-04-30T00:49:45.615Z,99585.09
2023-04-30T00:53:48.301Z,99587.75
2023-04-30T00:57:51.715Z,99577.63
2023-04-30T01:01:56.387Z,99578.56
2023-04-30T01:05:59.184Z,99580.97
2023-04-30T01:10:02.437Z,99581.41
2023-04-30T01:14:10.112Z,99584.41
2023-04-30T01:18:16.683Z,99590.63
2023-04-30T01:22:37.170Z,99578.09
2023-04-30T01:26:52.340Z,99580.72
2023-04-30T01:30:56.728Z,99579.13
2023-04-30T01:35:00.601Z,99581.31
2023-04-30T01:39:15.614Z,99577.63
2023-04-30T01:43:21.505Z,99577.50
2023-04-30T01:47:33.232Z,99576.41
2023-04-30T01:51:41.294Z,99570.31
2023-04-30T01:55:45.364Z,99576.72
2023-04-30T01:59:48.198Z,99574.88
2023-04-30T02:03:52.531Z,99575.22
2023-04-30T02:07:55.478Z,99579.94
2023-04-30T02:11:58.400Z,99583.97
2023-04-30T02:16:01.161Z,99589.47
2023-04-30T02:20:06.247Z,99593.50
2023-04-30T02:24:08.987Z,99585.09
2023-04-30T02:28:11.961Z,99582.13
2023-04-30T02:32:14.790Z,99579.47
2023-04-30T02:36:18.888Z,99577.53
2023-04-30T02:40:21.734Z,99589.00
2023-04-30T02:44:24.538Z,99581.91
2023-04-30T02:48:27.433Z,99580.53
2023-04-30T02:52:31.725Z,99559.28
2023-04-30T02:56:34.900Z,99574.31
2023-04-30T03:00:37.752Z,99568.94
2023-04-30T03:04:41.013Z,99572.34
2023-04-30T03:08:45.280Z,99568.31
2023-04-30T03:12:48.084Z,99564.81
2023-04-30T03:16:50.992Z,99562.13
2023-04-30T03:20:53.695Z,99549.50
2023-04-30T03:24:57.866Z,99566.28
2023-04-30T03:29:02.094Z,99567.44
2023-04-30T03:33:06.636Z,99569.13
2023-04-30T03:37:09.647Z,99566.84
2023-04-30T03:41:13.705Z,99568.34
2023-04-30T03:45:16.519Z,99566.38
2023-04-30T03:49:19.188Z,99566.41
2023-04-30T03:53:22.121Z,99564.63
2023-04-30T03:57:26.201Z,99561.78
2023-04-30T04:01:30.790Z,99562.25
2023-04-30T04:05:33.728Z,99562.03
2023-04-30T04:09:36.483Z,99564.44
2023-04-30T04:13:41.063Z,99564.31
2023-04-30T04:17:43.907Z,99565.38
2023-04-30T04:21:46.689Z,99569.63
2023-04-30T04:25:50.940Z,99569.16
2023-04-30T04:29:55.571Z,99573.84
2023-04-30T04:34:00.654Z,99582.44
2023-04-30T04:38:03.499Z,99577.06
2023-04-30T04:42:06.198Z,99592.56
2023-04-30T04:46:12.983Z,99580.97
2023-04-30T04:50:17.490Z,99591.41
2023-04-30T04:54:21.266Z,99588.97
2023-04-30T04:58:24.194Z,99592.19
2023-04-30T05:02:28.306Z,99589.13
2023-04-30T05:06:32.190Z,99597.34
2023-04-30T05:10:35.304Z,99594.69
2023-04-30T05:14:38.277Z,99586.88
2023-04-30T05:18:42.296Z,99596.88
2023-04-30T05:22:45.042Z,99597.19
2023-04-30T05:26:47.683Z,99593.63
2023-04-30T05:30:50.423Z,99590.13
2023-04-30T05:34:54.420Z,99595.19
2023-04-30T05:38:57.215Z,99587.41
2023-04-30T05:42:59.887Z,99595.34
2023-04-30T05:47:02.861Z,99593.84
2023-04-30T05:51:07.560Z,99596.09
2023-04-30T05:55:11.351Z,99588.91
2023-04-30T05:59:14.019Z,99581.19
2023-04-30T06:03:16.725Z,99591.53
2023-04-30T06:07:20.952Z,99585.13
2023-04-30T06:11:25.642Z,99585.06
2023-04-30T06:15:28.818Z,99585.00
2023-04-30T06:19:31.597Z,99583.66
2023-04-30T06:23:35.724Z,99580.41
2023-04-30T06:27:38.525Z,99577.22
2023-04-30T06:31:41.272Z,99582.34
2023-04-30T06:35:43.965Z,99581.28
2023-04-30T06:39:47.955Z,99583.44
2023-04-30T06:43:50.651Z,99584.81
2023-04-30T06:47:53.523Z,99592.97
2023-04-30T06:51:58.515Z,99591.44
2023-04-30T06:56:02.777Z,99588.72
2023-04-30T07:00:06.470Z,99588.88
2023-04-30T07:04:09.152Z,99589.19
2023-04-30T07:08:13.051Z,99584.56
2023-04-30T07:12:17.441Z,99589.72
2023-04-30T07:16:20.155Z,99585.38
2023-04-30T07:20:22.885Z,99581.34
2023-04-30T07:24:26.165Z,99585.78
2023-04-30T07:28:30.484Z,99581.19
2023-04-30T07:32:33.872Z,99588.13
2023-04-30T07:36:38.522Z,99585.97
2023-04-30T07:40:41.272Z,99591.47
2023-04-30T07:44:46.260Z,99588.13
2023-04-30T07:48:49.055Z,99590.09
2023-04-30T07:52:51.751Z,99597.50
2023-04-30T07:56:56.913Z,99598.38
2023-04-30T08:01:01.169Z,99599.56
2023-04-30T08:05:04.501Z,99608.47
2023-04-30T08:09:07.565Z,99603.91
2023-04-30T08:13:10.506Z,99599.88
2023-04-30T08:17:14.594Z,99597.28
2023-04-30T08:21:18.000Z,99610.19
2023-04-30T08:25:20.700Z,99608.41
2023-04-30T08:29:23.409Z,99613.41
2023-04-30T08:33:27.892Z,99607.53
2023-04-30T08:37:30.861Z,99602.47
2023-04-30T08:41:34.480Z,99605.69
2023-04-30T08:45:38.188Z,99606.19
2023-04-30T08:49:42.953Z,99608.34
2023-04-30T08:53:46.294Z,99611.28
2023-04-30T08:57:48.813Z,99613.38
2023-04-30T09:01:53.762Z,99618.25
2023-04-30T09:05:58.917Z,99613.38
2023-04-30T09:10:03.047Z,99609.84
2023-04-30T09:14:05.998Z,99604.06
2023-04-30T09:18:10.725Z,99616.16
2023-04-30T09:22:25.091Z,99615.69
2023-04-30T09:26:29.203Z,99603.06
2023-04-30T09:30:33.787Z,99616.84
2023-04-30T09:34:36.622Z,99622.84
2023-04-30T09:38:40.871Z,99621.09
2023-04-30T09:42:59.653Z,99615.91
2023-04-30T09:47:02.643Z,99605.53
2023-04-30T09:51:06.426Z,99608.44
2023-04-30T09:55:11.237Z,99613.56
2023-04-30T09:59:18.330Z,99617.78
2023-04-30T10:03:22.877Z,99604.28
2023-04-30T10:07:26.305Z,99607.25
2023-04-30T10:11:34.383Z,99600.91
2023-04-30T10:15:40.159Z,99589.47
2023-04-30T10:19:48.016Z,99588.41
2023-04-30T10:23:51.532Z,99585.47
2023-04-30T10:27:55.828Z,99579.34
2023-04-30T10:31:59.154Z,99568.13
2023-04-30T10:36:04.754Z,99579.56
2023-04-30T10:40:09.767Z,99563.06
2023-04-30T10:44:14.227Z,99566.78
2023-04-30T10:48:24.408Z,99570.00
2023-04-30T10:52:28.951Z,99547.25
2023-04-30T10:56:32.841Z,99545.59
2023-04-30T11:00:37.271Z,99537.28
2023-04-30T11:05:10.523Z,99525.84
2023-04-30T11:09:13.747Z,99520.69
2023-04-30T11:13:16.403Z,99523.81
2023-04-30T11:17:25.377Z,99527.44
2023-04-30T11:21:28.170Z,99529.31
2023-04-30T11:25:40.923Z,99520.84
2023-04-30T11:29:46.613Z,99513.53
2023-04-30T11:33:50.880Z,99514.34
2023-04-30T11:37:56.837Z,99506.38
2023-04-30T11:41:59.847Z,99513.84
2023-04-30T11:46:08.284Z,99500.47
2023-04-30T11:50:14.341Z,99520.31
2023-04-30T11:54:18.552Z,99514.97
2023-04-30T11:58:21.256Z,99512.28
2023-04-30T12:02:24.484Z,99503.81
2023-04-30T12:06:30.264Z,99508.81
2023-04-30T12:10:33.628Z,99502.88
2023-04-30T12:14:37.182Z,99496.00
2023-04-30T12:18:39.979Z,99494.03
2023-04-30T12:22:44.841Z,99485.44
2023-04-30T12:26:48.175Z,99488.47
2023-04-30T12:30:50.965Z,99495.41
2023-04-30T12:34:59.814Z,99495.75
2023-04-30T12:39:08.771Z,99488.94
2023-04-30T12:43:11.742Z,99495.25
2023-04-30T12:47:16.984Z,99485.06
2023-04-30T12:51:21.230Z,99490.31
2023-04-30T12:55:27.023Z,99488.84
2023-04-30T12:59:30.266Z,99489.47
2023-04-30T13:03:33.309Z,99482.16
2023-04-30T13:07:40.496Z,99486.38
2023-04-30T13:11:44.715Z,99491.00
2023-04-30T13:15:47.573Z,99478.59
2023-04-30T13:19:50.512Z,99480.06
2023-04-30T13:23:54.875Z,99477.66
2023-04-30T13:28:00.457Z,99474.69
2023-04-30T13:32:04.204Z,99475.72
2023-04-30T13:36:07.340Z,99466.31
2023-04-30T13:40:11.146Z,99464.53
2023-04-30T13:44:16.866Z,99460.00
2023-04-30T13:48:19.663Z,99450.84
2023-04-30T13:52:22.547Z,99436.38
2023-04-30T13:56:25.478Z,99433.50
2023-04-30T14:00:29.641Z,99423.16
2023-04-30T14:04:32.596Z,99413.34
2023-04-30T14:08:35.345Z,99407.50
2023-04-30T14:12:38.592Z,99407.16
2023-04-30T14:16:42.814Z,99405.66
2023-04-30T14:20:45.618Z,99397.16
2023-04-30T14:24:48.373Z,99416.31
2023-04-30T14:28:51.486Z,99412.03
2023-04-30T14:32:55.980Z,99404.09
2023-04-30T14:37:01.964Z,99398.53
2023-04-30T14:41:04.888Z,99394.63
2023-04-30T14:45:08.136Z,99392.00
2023-04-30T14:49:12.743Z,99382.88
2023-04-30T14:53:15.359Z,99400.28
2023-04-30T14:57:19.700Z,99389.38
2023-04-30T15:01:22.766Z,99388.06
2023-04-30T15:05:27.025Z,99395.00
2023-04-30T15:09:29.736Z,99378.31
2023-04-30T15:13:33.070Z,99373.66
2023-04-30T15:17:37.056Z,99360.09
2023-04-30T15:21:41.364Z,99356.34
2023-04-30T15:25:44.456Z,99350.91
2023-04-30T15:29:47.600Z,99349.81
2023-04-30T15:33:50.739Z,99345.16
2023-04-30T15:37:55.276Z,99349.41
2023-04-30T15:41:58.257Z,99340.84
2023-04-30T15:46:00.865Z,99333.44
2023-04-30T15:50:03.578Z,99324.75
2023-04-30T15:54:10.912Z,99318.88
2023-04-30T15:58:14.382Z,99322.31
2023-04-30T16:02:17.127Z,99318.16
2023-04-30T16:06:20.662Z,99314.22
2023-04-30T16:10:24.991Z,99321.47
2023-04-30T16:14:27.754Z,99317.94
2023-04-30T16:18:30.807Z,99307.22
2023-04-30T16:22:34.149Z,99315.78
2023-04-30T16:26:38.589Z,99307.56
2023-04-30T16:30:41.792Z,99302.47
2023-04-30T16:34:44.394Z,99316.13
2023-04-30T16:38:47.521Z,99304.59
2023-04-30T16:42:52.478Z,99299.88
2023-04-30T16:46:56.973Z,99306.69
2023-04-30T16:50:59.841Z,99296.19
2023-04-30T16:55:05.122Z,99297.00
2023-04-30T16:59:09.635Z,99289.78
2023-04-30T17:03:12.901Z,99288.19
2023-04-30T17:07:17.782Z,99284.41
2023-04-30T17:11:23.310Z,99291.25
2023-04-30T17:15:27.459Z,99285.16
2023-04-30T17:19:30.168Z,99293.13
2023-04-30T17:23:32.979Z,99286.22
2023-04-30T17:27:35.760Z,99288.66
2023-04-30T17:31:40.218Z,99293.00
2023-04-30T17:35:42.995Z,99285.84
2023-04-30T17:39:46.455Z,99289.03
2023-04-30T17:43:50.408Z,99293.81
2023-04-30T17:47:54.957Z,99291.59
2023-04-30T17:51:59.147Z,99285.84
2023-04-30T17:56:02.333Z,99290.34
2023-04-30T18:00:07.216Z,99282.44
2023-04-30T18:04:11.549Z,99286.19
2023-04-30T18:08:16.695Z,99289.72
2023-04-30T18:12:25.418Z,99275.38
2023-04-30T18:16:29.071Z,99284.41
2023-04-30T18:20:33.662Z,99292.88
2023-04-30T18:24:42.946Z,99296.09
2023-04-30T18:28:46.507Z,99291.81
2023-04-30T18:32:52.806Z,99298.75
2023-04-30T18:36:57.877Z,99290.19
2023-04-30T18:41:01.116Z,99298.72
2023-04-30T18:45:04.217Z,99294.81
2023-04-30T18:49:06.901Z,99293.03
2023-04-30T18:53:11.224Z,99289.31
2023-04-30T18:57:16.342Z,99296.63
2023-04-30T19:01:22.341Z,99285.38
2023-04-30T19:05:25.082Z,99291.31
2023-04-30T19:09:29.693Z,99298.03
2023-04-30T19:13:32.688Z,99293.25
2023-04-30T19:17:35.623Z,99294.47
2023-04-30T19:21:38.760Z,99292.19
2023-04-30T19:25:43.324Z,99304.75
2023-04-30T19:29:47.176Z,99309.97
2023-04-30T19:33:50.206Z,99311.84
2023-04-30T19:37:53.155Z,99313.28
2023-04-30T19:41:58.062Z,99308.88
2023-04-30T19:46:02.174Z,99315.81
2023-04-30T19:50:05.630Z,99321.00
2023-04-30T19:54:14.046Z,99310.31
2023-04-30T19:58:18.362Z,99315.03
2023-04-30T20:02:21.803Z,99323.69
2023-04-30T20:06:24.567Z,99315.50
2023-04-30T20:10:27.361Z,99314.81
2023-04-30T20:14:31.967Z,99312.72
2023-04-30T20:18:35.246Z,99307.94
2023-04-30T20:22:38.250Z,99313.78
2023-04-30T20:26:42.189Z,99315.09
2023-04-30T20:30:48.048Z,99309.84
2023-04-30T20:34:51.388Z,99301.81
2023-04-30T20:38:55.994Z,99311.53
2023-04-30T20:42:58.981Z,99303.50
2023-04-30T20:47:05.512Z,99302.94
2023-04-30T20:51:08.812Z,99297.28
2023-04-30T20:55:12.286Z,99290.19
2023-04-30T20:59:15.440Z,99292.63
2023-04-30T21:03:19.790Z,99293.16
2023-04-30T21:07:22.908Z,99286.53
2023-04-30T21:11:25.995Z,99273.53
2023-04-30T21:15:30.757Z,99278.78
2023-04-30T21:19:35.325Z,99280.53
2023-04-30T21:23:38.135Z,99281.72
2023-04-30T21:27:40.913Z,99273.22
2023-04-30T21:31:46.626Z,99266.81
2023-04-30T21:35:51.129Z,99272.16
2023-04-30T21:39:55.694Z,99267.38
2023-04-30T21:43:59.726Z,99265.22
2023-04-30T21:48:02.536Z,99258.59
2023-04-30T21:52:08.358Z,99252.28
2023-04-30T21:56:12.428Z,99256.97
2023-04-30T22:00:17.383Z,99246.22
2023-04-30T22:04:21.472Z,99250.91
2023-04-30T22:08:25.754Z,99241.84
2023-04-30T22:12:28.622Z,99236.06
2023-04-30T22:16:33.083Z,99232.34
2023-04-30T22:20:36.336Z,99238.25
2023-04-30T22:24:41.056Z,99227.63
2023-04-30T22:28:44.045Z,99226.91
2023-04-30T22:32:46.917Z,99224.47
2023-04-30T22:36:49.964Z,99225.03
2023-04-30T22:40:54.227Z,99221.47
2023-04-30T22:44:56.907Z,99223.16
2023-04-30T22:48:59.655Z,99217.63
2023-04-30T22:53:02.695Z,99216.16
2023-04-30T22:57:06.892Z,99220.19
2023-04-30T23:01:09.668Z,99209.41
2023-04-30T23:05:13.181Z,99209.44
2023-04-30T23:09:16.617Z,99208.28
2023-04-30T23:13:20.777Z,99207.97
2023-04-30T23:17:24.136Z,99219.63
2023-04-30T23:21:26.869Z,99216.22
2023-04-30T23:25:29.787Z,99204.97
2023-04-30T23:29:36.165Z,99203.03
2023-04-30T23:33:39.354Z,99201.09
2023-04-30T23:37:42.189Z,99201.31
2023-04-30T23:41:45.103Z,99194.13
2023-04-30T23:45:49.770Z,99197.91
2023-04-30T23:49:52.904Z,99191.00
2023-04-30T23:53:55.649Z,99192.22
2023-04-30T23:57:58.462Z,99181.81
